createdAt,value
2023-05-01T00:00:17.460Z,97462.52
2023-05-01T00:03:16.255Z,97471.22
2023-05-01T00:06:08.830Z,97465.76
2023-05-01T00:09:22.598Z,97468.78
2023-05-01T00:12:42.983Z,97465.50
2023-05-01T00:15:14.742Z,97473.97
2023-05-01T00:21:35.913Z,97466.89
2023-05-01T00:27:38.083Z,97463.33
2023-05-01T00:36:07.325Z,97464.42
2023-05-01T00:39:43.066Z,97452.92
2023-05-01T00:42:26.332Z,97458.14
2023-05-01T00:45:23.336Z,97442.83
2023-05-01T00:48:33.179Z,97464.17
2023-05-01T00:51:14.132Z,97461.95
2023-05-01T00:54:06.480Z,97465.53
2023-05-01T00:59:30.831Z,97460.88
2023-05-01T01:02:00.900Z,97467.97
2023-05-01T01:04:33.132Z,97466.91
2023-05-01T01:07:11.135Z,97468.27
2023-05-01T01:10:17.201Z,97457.33
2023-05-01T01:13:08.481Z,97468.27
2023-05-01T01:15:43.618Z,97471.81
2023-05-01T01:18:59.187Z,97473.73
2023-05-01T01:21:53.714Z,97481.13
2023-05-01T01:25:01.432Z,97477.84
2023-05-01T01:27:53.081Z,97486.84
2023-05-01T01:30:46.328Z,97486.03
2023-05-01T01:33:47.955Z,97484.38
2023-05-01T01:36:58.811Z,97489.58
2023-05-01T01:39:49.938Z,97480.81
2023-05-01T01:43:07.275Z,97487.66
2023-05-01T01:45:56.541Z,97493.12
2023-05-01T01:48:43.334Z,97478.34
2023-05-01T01:57:51.131Z,97509.80
2023-05-01T02:00:46.318Z,97523.16
2023-05-01T02:04:15.054Z,97522.34
2023-05-01T02:09:50.833Z,97537.11
2023-05-01T02:12:45.522Z,97535.19
2023-05-01T02:15:41.958Z,97542.84
2023-05-01T02:18:40.656Z,97546.67
2023-05-01T02:22:03.614Z,97551.31
2023-05-01T02:24:48.172Z,97549.66
2023-05-01T02:28:06.994Z,97552.67
2023-05-01T02:30:57.210Z,97555.92
2023-05-01T02:33:47.302Z,97559.77
2023-05-01T02:37:11.623Z,97565.77
2023-05-01T02:40:07.671Z,97570.98
2023-05-01T02:42:42.901Z,97572.05
2023-05-01T02:46:16.081Z,97581.34
2023-05-01T02:48:36.496Z,97584.63
2023-05-01T02:55:02.596Z,97564.30
2023-05-01T02:57:46.308Z,97585.98
2023-05-01T03:01:13.855Z,97589.52
2023-05-01T03:03:49.085Z,97590.58
2023-05-01T03:06:38.543Z,97602.89
2023-05-01T03:09:52.275Z,97602.89
2023-05-01T03:19:02.943Z,97612.14
2023-05-01T03:21:47.605Z,97617.89
2023-05-01T03:24:51.663Z,97621.14
2023-05-01T03:28:27.806Z,97615.67
2023-05-01T03:37:03.337Z,97611.58
2023-05-01T03:40:00.191Z,97605.22
2023-05-01T03:43:05.836Z,97605.22
2023-05-01T03:46:12.112Z,97621.38
2023-05-01T03:48:47.031Z,97617.27
2023-05-01T03:52:10.912Z,97621.11
2023-05-01T03:55:24.518Z,97621.36
2023-05-01T03:58:28.322Z,97627.09
2023-05-01T04:00:58.611Z,97625.98
2023-05-01T04:07:48.312Z,97609.80
2023-05-01T04:10:17.896Z,97627.61
2023-05-01T04:13:02.708Z,97628.96
2023-05-01T04:16:07.309Z,97637.97
2023-05-01T04:18:47.384Z,97637.67
2023-05-01T04:24:07.269Z,97632.73
2023-05-01T04:26:37.168Z,97638.75
2023-05-01T04:29:08.529Z,97637.12
2023-05-01T04:31:39.180Z,97638.18
2023-05-01T04:34:30.075Z,97632.72
2023-05-01T04:37:28.703Z,97628.61
2023-05-01T04:40:11.163Z,97632.19
2023-05-01T04:48:59.946Z,97640.38
2023-05-01T04:52:02.412Z,97647.98
2023-05-01T04:55:18.972Z,97627.62
2023-05-01T04:58:14.377Z,97650.66
2023-05-01T05:01:21.346Z,97641.90
2023-05-01T05:07:20.000Z,97643.52
2023-05-01T05:10:47.268Z,97641.59
2023-05-01T05:13:37.917Z,97638.59
2023-05-01T05:16:18.432Z,97647.02
2023-05-01T05:19:03.679Z,97638.81
2023-05-01T05:22:12.886Z,97639.91
2023-05-01T05:25:00.593Z,97633.05
2023-05-01T05:29:27.748Z,97646.16
2023-05-01T05:30:08.677Z,97648.63
2023-05-01T05:32:39.673Z,97646.95
2023-05-01T05:35:10.790Z,97643.14
2023-05-01T05:37:43.434Z,97635.44
2023-05-01T05:40:28.182Z,97639.82
2023-05-01T05:46:14.070Z,97643.37
2023-05-01T05:49:17.224Z,97652.66
2023-05-01T05:55:15.210Z,97653.17
2023-05-01T06:01:27.002Z,97661.03
2023-05-01T06:07:30.567Z,97654.47
2023-05-01T06:10:05.796Z,97656.89
2023-05-01T06:12:37.713Z,97657.72
2023-05-01T06:15:09.193Z,97663.42
2023-05-01T06:17:41.444Z,97664.78
2023-05-01T06:20:12.749Z,97654.36
2023-05-01T06:22:45.729Z,97663.13
2023-05-01T06:26:03.493Z,97664.48
2023-05-01T06:28:33.497Z,97663.67
2023-05-01T06:31:24.460Z,97659.00
2023-05-01T06:34:28.400Z,97664.16
2023-05-01T06:37:43.985Z,97663.34
2023-05-01T06:40:36.459Z,97660.59
2023-05-01T06:44:10.300Z,97658.65
2023-05-01T06:46:41.443Z,97662.20
2023-05-01T06:49:28.407Z,97664.90
2023-05-01T06:52:27.697Z,97662.41
2023-05-01T06:55:30.383Z,97670.05
2023-05-01T06:58:35.201Z,97662.64
2023-05-01T07:04:40.016Z,97669.18
2023-05-01T07:11:06.680Z,97640.06
2023-05-01T07:13:43.050Z,97661.79
2023-05-01T07:16:51.381Z,97652.42
2023-05-01T07:19:48.283Z,97657.88
2023-05-01T07:22:54.668Z,97655.70
2023-05-01T07:26:14.523Z,97655.95
2023-05-01T07:31:59.100Z,97652.09
2023-05-01T07:37:58.340Z,97647.16
2023-05-01T07:40:28.333Z,97644.67
2023-05-01T07:46:31.307Z,97641.92
2023-05-01T07:56:31.112Z,97636.16
2023-05-01T07:58:39.552Z,97635.59
2023-05-01T08:01:24.142Z,97641.83
2023-05-01T08:03:54.274Z,97636.11
2023-05-01T08:06:24.263Z,97631.98
2023-05-01T08:08:54.249Z,97628.45
2023-05-01T08:11:24.184Z,97630.05
2023-05-01T08:13:57.363Z,97624.88
2023-05-01T08:19:58.595Z,97625.41
2023-05-01T08:23:11.751Z,97618.84
2023-05-01T08:25:58.731Z,97615.54
2023-05-01T08:29:11.056Z,97615.51
2023-05-01T08:32:25.050Z,97617.42
2023-05-01T08:35:06.757Z,97612.23
2023-05-01T08:38:08.640Z,97608.94
2023-05-01T08:41:08.625Z,97600.19
2023-05-01T08:44:30.184Z,97599.61
2023-05-01T08:47:27.163Z,97609.97
2023-05-01T08:49:57.336Z,97613.75
2023-05-01T08:53:21.313Z,97612.36
2023-05-01T08:55:54.210Z,97603.03
2023-05-01T08:58:51.691Z,97618.31
2023-05-01T09:01:43.343Z,97614.75
2023-05-01T09:07:36.880Z,97614.71
2023-05-01T09:16:48.039Z,97611.38
2023-05-01T09:23:16.569Z,97617.91
2023-05-01T09:25:52.892Z,97618.39
2023-05-01T09:29:26.813Z,97614.03
2023-05-01T09:32:19.065Z,97609.37
2023-05-01T09:35:26.597Z,97615.57
2023-05-01T09:41:51.615Z,97608.45
2023-05-01T09:44:20.926Z,97609.50
2023-05-01T09:47:21.128Z,97610.83
2023-05-01T09:49:57.898Z,97611.92
2023-05-01T09:53:23.372Z,97604.27
2023-05-01T09:56:19.146Z,97608.89
2023-05-01T09:59:16.593Z,97606.13
2023-05-01T10:02:21.033Z,97622.47
2023-05-01T10:05:09.671Z,97616.17
2023-05-01T10:20:27.424Z,97616.61
2023-05-01T10:24:05.220Z,97612.22
2023-05-01T10:26:39.648Z,97613.30
2023-05-01T10:32:32.788Z,97609.96
2023-05-01T10:35:48.487Z,97613.46
2023-05-01T10:38:37.150Z,97614.00
2023-05-01T10:42:04.775Z,97579.40
2023-05-01T10:50:41.260Z,97609.34
2023-05-01T10:53:33.440Z,97606.84
2023-05-01T10:56:58.710Z,97613.89
2023-05-01T10:59:51.802Z,97616.58
2023-05-01T11:02:26.519Z,97613.58
2023-05-01T11:08:40.625Z,97622.79
2023-05-01T11:11:34.844Z,97630.65
2023-05-01T11:14:12.948Z,97629.25
2023-05-01T11:20:28.559Z,97635.73
2023-05-01T11:23:44.872Z,97640.91
2023-05-01T11:26:55.036Z,97648.48
2023-05-01T11:29:30.639Z,97656.88
2023-05-01T11:32:36.469Z,97661.23
2023-05-01T11:35:33.617Z,97660.64
2023-05-01T11:38:35.977Z,97670.44
2023-05-01T11:41:30.879Z,97670.95
2023-05-01T11:47:30.541Z,97675.25
2023-05-01T11:50:15.717Z,97675.80
2023-05-01T11:53:30.273Z,97677.92
2023-05-01T11:56:30.345Z,97675.98
2023-05-01T12:02:24.904Z,97653.85
2023-05-01T12:05:45.388Z,97682.66
2023-05-01T12:11:25.622Z,97688.41
2023-05-01T12:14:12.956Z,97690.73
2023-05-01T12:29:47.134Z,97733.94
2023-05-01T12:35:48.814Z,97746.14
2023-05-01T12:38:50.392Z,97751.09
2023-05-01T12:42:00.914Z,97747.09
2023-05-01T12:45:13.326Z,97752.69
2023-05-01T12:47:44.947Z,97725.73
2023-05-01T12:50:45.948Z,97737.16
2023-05-01T12:53:36.799Z,97735.06
2023-05-01T13:03:11.008Z,97748.89
2023-05-01T13:06:02.798Z,97750.34
2023-05-01T13:08:40.778Z,97747.69
2023-05-01T13:11:42.750Z,97755.39
2023-05-01T13:14:35.069Z,97747.30
2023-05-01T13:17:45.615Z,97746.02
2023-05-01T13:20:54.364Z,97744.42
2023-05-01T13:23:48.290Z,97740.17
2023-05-01T13:26:43.154Z,97737.21
2023-05-01T13:30:02.736Z,97730.47
2023-05-01T13:32:52.341Z,97736.53
2023-05-01T13:35:39.071Z,97720.25
2023-05-01T13:38:26.043Z,97719.44
2023-05-01T13:44:23.473Z,97743.66
2023-05-01T13:46:53.414Z,97751.30
2023-05-01T13:49:23.504Z,97755.92
2023-05-01T13:51:53.510Z,97760.02
2023-05-01T13:54:23.568Z,97776.95
2023-05-01T14:00:02.439Z,97788.95
2023-05-01T14:02:32.540Z,97797.13
2023-05-01T14:05:46.844Z,97791.13
2023-05-01T14:12:12.749Z,97806.94
2023-05-01T14:14:50.742Z,97809.91
2023-05-01T14:21:15.149Z,97811.89
2023-05-01T14:23:46.141Z,97806.36
2023-05-01T14:39:10.763Z,97806.91
2023-05-01T14:41:58.196Z,97799.27
2023-05-01T14:44:54.995Z,97803.91
2023-05-01T14:56:46.914Z,97788.60
2023-05-01T14:59:50.750Z,97798.69
2023-05-01T15:02:47.694Z,97793.23
2023-05-01T15:05:53.764Z,97806.05
2023-05-01T15:14:51.087Z,97808.19
2023-05-01T15:24:35.583Z,97810.09
2023-05-01T15:27:05.731Z,97821.55
2023-05-01T15:30:03.561Z,97819.05
2023-05-01T15:36:31.309Z,97826.41
2023-05-01T15:39:18.818Z,97826.95
2023-05-01T15:45:32.498Z,97836.22
2023-05-01T15:51:23.138Z,97841.67
2023-05-01T15:53:54.258Z,97839.45
2023-05-01T15:56:56.144Z,97850.91
2023-05-01T16:03:24.459Z,97862.34
2023-05-01T16:08:15.212Z,97865.08
2023-05-01T16:10:46.213Z,97865.62
2023-05-01T16:13:17.294Z,97857.13
2023-05-01T16:15:48.448Z,97854.13
2023-05-01T16:18:21.401Z,97865.58
2023-05-01T16:21:08.215Z,97840.80
2023-05-01T16:23:51.767Z,97870.48
2023-05-01T16:26:42.299Z,97874.84
2023-05-01T16:29:12.895Z,97876.48
2023-05-01T16:31:46.577Z,97881.38
2023-05-01T16:34:18.890Z,97880.56
2023-05-01T16:36:48.787Z,97883.84
2023-05-01T16:39:22.572Z,97884.11
2023-05-01T16:41:54.710Z,97878.38
2023-05-01T16:44:24.964Z,97878.89
2023-05-01T16:46:59.259Z,97879.44
2023-05-01T16:49:29.265Z,97884.89
2023-05-01T16:51:59.679Z,97885.20
2023-05-01T16:54:32.290Z,97887.61
2023-05-01T16:57:33.477Z,97880.25
2023-05-01T17:06:11.406Z,97880.80
2023-05-01T17:09:06.479Z,97884.89
2023-05-01T17:15:51.180Z,97883.79
2023-05-01T17:30:14.170Z,97838.32
2023-05-01T17:33:17.822Z,97842.61
2023-05-01T17:36:11.505Z,97832.20
2023-05-01T17:39:17.342Z,97825.20
2023-05-01T17:45:07.984Z,97804.76
2023-05-01T17:53:09.367Z,97804.21
2023-05-01T17:55:39.750Z,97804.21
2023-05-01T17:58:13.770Z,97803.39
2023-05-01T18:00:50.270Z,97807.76
2023-05-01T18:03:22.871Z,97793.86
2023-05-01T18:06:06.578Z,97758.83
2023-05-01T18:08:38.238Z,97791.69
2023-05-01T18:11:12.624Z,97785.99
2023-05-01T18:13:47.401Z,97784.87
2023-05-01T18:16:19.483Z,97771.55
2023-05-01T18:18:54.419Z,97769.09
2023-05-01T18:21:29.687Z,97760.92
2023-05-01T18:30:36.053Z,97746.00
2023-05-01T18:33:18.795Z,97738.06
2023-05-01T18:36:32.192Z,97742.16
2023-05-01T18:42:15.091Z,97736.70
2023-05-01T18:47:36.893Z,97743.20
2023-05-01T18:50:08.138Z,97752.51
2023-05-01T18:52:46.018Z,97740.52
2023-05-01T18:55:17.544Z,97734.52
2023-05-01T18:57:55.970Z,97732.64
2023-05-01T19:01:08.807Z,97730.73
2023-05-01T19:03:39.494Z,97720.66
2023-05-01T19:06:21.932Z,97719.56
2023-05-01T19:09:16.220Z,97723.66
2023-05-01T19:17:05.984Z,97718.03
2023-05-01T19:19:43.802Z,97708.97
2023-05-01T19:22:10.990Z,97700.55
2023-05-01T19:25:06.174Z,97704.95
2023-05-01T19:27:37.732Z,97695.41
2023-05-01T19:30:33.044Z,97692.99
2023-05-01T19:33:23.814Z,97688.90
2023-05-01T19:38:42.527Z,97691.87
2023-05-01T19:41:12.182Z,97684.81
2023-05-01T19:43:55.926Z,97686.17
2023-05-01T19:46:30.832Z,97676.63
2023-05-01T19:49:02.267Z,97672.00
2023-05-01T19:51:39.085Z,97666.00
2023-05-01T19:55:02.409Z,97655.40
2023-05-01T19:57:49.618Z,97651.59
2023-05-01T20:03:33.303Z,97641.50
2023-05-01T20:06:30.342Z,97639.59
2023-05-01T20:12:35.251Z,97629.81
2023-05-01T20:15:32.972Z,97625.75
2023-05-01T20:23:55.937Z,97615.41
2023-05-01T20:26:29.755Z,97600.42
2023-05-01T20:29:03.417Z,97596.09
2023-05-01T20:31:43.329Z,97592.27
2023-05-01T20:37:15.311Z,97585.56
2023-05-01T20:39:49.696Z,97587.44
2023-05-01T20:42:58.380Z,97587.44
2023-05-01T20:46:34.181Z,97592.37
2023-05-01T20:49:05.878Z,97585.86
2023-05-01T20:52:23.403Z,97576.86
2023-05-01T20:54:53.612Z,97574.43
2023-05-01T20:58:04.246Z,97558.05
2023-05-01T21:03:49.351Z,97554.05
2023-05-01T21:06:38.003Z,97554.59
2023-05-01T21:11:57.820Z,97550.55
2023-05-01T21:14:29.659Z,97540.45
2023-05-01T21:17:06.541Z,97543.20
2023-05-01T21:19:44.563Z,97545.14
2023-05-01T21:22:28.115Z,97537.80
2023-05-01T21:25:08.492Z,97537.00
2023-05-01T21:27:50.854Z,97534.30
2023-05-01T21:31:04.783Z,97533.77
2023-05-01T21:36:57.538Z,97522.94
2023-05-01T21:39:46.443Z,97526.46
2023-05-01T21:48:04.931Z,97506.31
2023-05-01T21:50:39.021Z,97506.88
2023-05-01T21:53:11.948Z,97504.98
2023-05-01T21:55:42.885Z,97510.22
2023-05-01T22:01:28.900Z,97490.62
2023-05-01T22:03:59.226Z,97484.05
2023-05-01T22:10:30.526Z,97473.98
2023-05-01T22:16:06.195Z,97477.00
2023-05-01T22:22:27.986Z,97467.52
2023-05-01T22:24:57.133Z,97470.00
2023-05-01T22:28:00.056Z,97466.19
2023-05-01T22:49:30.713Z,97440.70
2023-05-01T22:52:54.891Z,97452.12
2023-05-01T22:55:24.895Z,97445.02
2023-05-01T22:58:43.573Z,97450.74
2023-05-01T23:01:36.821Z,97452.67
2023-05-01T23:04:47.219Z,97447.20
2023-05-01T23:07:32.720Z,97444.73
2023-05-01T23:10:14.381Z,97440.64
2023-05-01T23:16:22.707Z,97445.33
2023-05-01T23:18:53.655Z,97447.53
2023-05-01T23:21:23.668Z,97441.52
2023-05-01T23:23:53.779Z,97442.06
2023-05-01T23:26:30.546Z,97439.89
2023-05-01T23:29:00.829Z,97427.59
2023-05-01T23:31:30.874Z,97425.67
2023-05-01T23:34:20.875Z,97424.30
2023-05-01T23:36:56.799Z,97419.36
2023-05-01T23:39:27.059Z,97425.13
2023-05-01T23:41:57.789Z,97430.30
2023-05-01T23:44:28.981Z,97428.12
2023-05-01T23:46:59.041Z,97424.28
2023-05-01T23:49:32.550Z,97421.55
2023-05-01T23:52:20.822Z,97424.28
2023-05-01T23:58:16.364Z,97422.09
